• Join FlightAware (Why Join?)
  • Login
  • US Flag GB Flag 
20:50 EDT


 

Airport Tracker/Info


-or-


 

Live Flight TrackerFlight Track Log ✈ LXJ262 ✈ 02-May-2013 ✈ KMDW - KTEB

Flight Track Log - Related Links

Times and Time Zones

All times are in EDT time to prevent confusion due to time zone crossing. See the LXJ262 flight status page for this flight to view local times or setup timezone preferences in your user account.

Time Position Orientation Groundspeed Altitude Reporting Facility
EDT Latitude Longitude Course Direction KTS MPH feet Rate Location/Type
14:23 41.8000 -87.7333 90° East 185 213 1,800  Level Chicago TRACON
14:24 41.8000 -87.6500 90° East 256 295 3,900 1,740 Climbing Chicago TRACON
14:25 41.8125 -87.5806 76° East 253 291 4,900 2,160 Climbing Chicago Center
14:26 41.8042 -87.4778 96° East 269 310 7,800 2,700 Climbing Chicago Center
14:27 41.7933 -87.3758 98° East 278 320 10,600 3,060 Climbing Chicago Center
14:28 41.7806 -87.2453 97° East 293 337 14,200 2,100 Climbing Chicago Center
14:29 41.7683 -87.1322 98° East 306 352 15,000 960 Climbing Chicago Center
14:30 41.7617 -87.0197 95° East 305 351 16,300 2,340 Climbing Chicago Center
14:31 41.7636 -86.8989 89° East 322 371 19,900 3,120 Climbing Chicago Center
14:33 41.7642 -86.7706 90° East 342 394 22,800 3,240 Climbing Chicago Center
14:34 41.7656 -86.6239 89° East 360 414 26,600 3,000 Climbing Chicago Center
14:35 41.7664 -86.4794 90° East 387 445 29,100 2,460 Climbing Chicago Center
14:36 41.7694 -86.3267 88° East 408 470 31,800 2,760 Climbing Chicago Center
14:37 41.7997 -86.1386 78° East 430 495 34,900 2,700 Climbing Chicago Center
14:38 41.8269 -85.9797 77° East 436 502 37,400 2,280 Climbing Chicago Center
14:39 41.8542 -85.8189 77° East 440 506 39,700 1,680 Climbing Chicago Center
14:40 41.8814 -85.6533 77° East 449 517 41,000 600 Climbing Chicago Center
14:41 41.9106 -85.4853 77° East 456 525 41,000  Level Chicago Center
14:42 41.9469 -85.2853 76° East 461 531 41,000  Level Cleveland Center
14:43 41.9539 -85.1153 87° East 461 531 41,000  Level Cleveland Center
14:44 41.9528 -84.9783 91° East 461 531 41,000  Level Cleveland Center
14:45 41.9536 -84.7914 90° East 456 525 41,000  Level Cleveland Center
14:46 41.9556 -84.6211 89° East 456 525 41,000  Level Cleveland Center
14:47 41.9614 -84.4483 87° East 461 531 41,000  Level Cleveland Center
14:48 41.9592 -84.2636 91° East 453 521 41,000  Level Cleveland Center
14:49 41.9583 -84.0933 90° East 448 516 41,000  Level Cleveland Center
14:50 41.9608 -83.9369 89° East 448 516 41,000  Level Cleveland Center
14:51 41.9617 -83.7667 90° East 460 529 41,000  Level Cleveland Center
14:52 41.9622 -83.5936 90° East 460 529 41,000  Level Cleveland Center
14:53 41.9644 -83.4233 89° East 460 529 41,000  Level Cleveland Center
14:54 41.9664 -83.2531 89° East 460 529 41,000  Level Cleveland Center
14:55 41.9661 -83.0825 90° East 460 529 41,000  Level Cleveland Center
14:56 41.9675 -82.9150 89° East 460 529 41,000  Level Cleveland Center
14:57 41.9686 -82.7475 89° East 455 524 41,000  Level Cleveland Center
14:58 41.9656 -82.5800 91° East 455 524 41,000  Level Cleveland Center
14:59 41.9661 -82.4122 90° East 455 524 41,000  Level Cleveland Center
15:00 41.9647 -82.2447 91° East 450 518 41,000  Level Cleveland Center
15:01 41.9672 -82.0606 89° East 450 518 41,000  Level Cleveland Center
15:02 41.9669 -81.8928 90° East 445 512 41,000  Level Cleveland Center
15:03 41.9647 -81.7308 91° East 438 504 41,000  Level Cleveland Center
15:04 41.9639 -81.5828 90° East 438 504 41,000  Level Cleveland Center
15:05 41.9611 -81.4153 91° East 444 511 41,000  Level Cleveland Center
15:06 41.9600 -81.2450 90° East 444 511 41,000  Level Cleveland Center
15:07 41.9589 -81.0744 90° East 450 518 41,000  Level Cleveland Center
15:08 41.9553 -80.9069 92° East 444 511 41,000  Level Cleveland Center
15:09 41.9517 -80.7256 91° East 438 504 41,000  Level Cleveland Center
15:10 41.9475 -80.5608 92° East 443 510 41,000  Level Cleveland Center
15:11 41.9453 -80.3961 91° East 438 504 41,000  Level Cleveland Center
15:12 41.9406 -80.2286 92° East 438 504 41,000  Level Cleveland Center
15:13 41.9381 -80.0639 91° East 438 504 41,000  Level Cleveland Center
15:14 41.9350 -79.9022 91° East 438 504 41,000  Level Cleveland Center
15:15 41.9297 -79.7375 92° East 438 504 41,000  Level Cleveland Center
15:16 41.9264 -79.5842 92° East 444 511 41,000  Level Cleveland Center
15:17 41.9228 -79.4167 92° East 444 511 41,000  Level Cleveland Center
15:18 41.9167 -79.2353 93° East 444 511 41,000  Level Cleveland Center
15:19 41.9125 -79.0653 92° East 444 511 41,000  Level Cleveland Center
15:20 41.9061 -78.9092 93° East 444 511 41,000 -420 Level Cleveland Center
15:21 41.9014 -78.7419 92° East 449 517 40,200 -900 Descending Cleveland Center
15:22 41.8944 -78.5775 93° East 449 517 39,200 -1,020 Descending Cleveland Center
15:23 41.8894 -78.4075 92° East 444 511 38,200 -1,020 Descending Cleveland Center
15:25 41.8686 -77.9906 94° East 468 539 35,800 -960 Descending New York Center
15:26 41.8558 -77.8219 96° East 463 533 35,000 -420 Descending New York Center
15:27 41.8131 -77.6617 110° East 457 526 35,000  Level New York Center
15:28 41.7706 -77.4958 109° East 462 532 35,000  Level New York Center
15:29 41.7275 -77.3358 110° East 462 532 35,000 -360 Level New York Center
15:30 41.6842 -77.1733 110° East 462 532 34,400 -1,260 Descending New York Center
15:31 41.6386 -77.0106 110° East 462 532 32,600 -1,800 Descending New York Center
15:32 41.5950 -76.8456 109° East 462 532 30,800 -1,920 Descending New York Center
15:33 41.5511 -76.6836 110° East 462 532 28,800 -1,980 Descending New York Center
15:34 41.5053 -76.5161 110° East 467 537 27,000 -1,680 Descending New York Center
15:35 41.4664 -76.3717 110° East 467 537 25,500 -1,680 Descending New York Center
15:36 41.4200 -76.2017 110° East 467 537 23,700 -1,740 Descending New York Center
15:37 41.3753 -76.0433 111° Southeast 467 537 22,000 -1,680 Descending New York Center
15:38 41.3317 -75.8933 111° Southeast 448 516 20,400 -1,740 Descending New York Center
15:39 41.2881 -75.7436 111° Southeast 442 509 18,600 -1,980 Descending New York Center
15:40 41.2439 -75.6053 113° Southeast 421 484 16,500 -2,160 Descending New York Center
15:41 41.2011 -75.4753 114° Southeast 370 426 14,300 -2,100 Descending New York Center
15:42 41.1603 -75.3542 114° Southeast 356 410 12,400 -1,800 Descending New York Center
15:43 41.1247 -75.2469 114° Southeast 329 379 10,700 -1,620 Descending New York Center
15:44 41.0964 -75.1653 115° Southeast 288 331 9,200 -1,440 Descending New York Center
15:45 41.0683 -75.0781 113° Southeast 268 308 7,800 -1,560 Descending New York Center
15:46 41.0344 -74.9825 115° Southeast 258 297 6,100 -960 Descending New York Center
15:47 41.0081 -74.9039 114° Southeast 264 304 6,000 -720 Descending New York Center
15:48 41.0136 -74.8025 86° East 250 288 4,700 -1,020 Descending New York Center
15:49 41.0289 -74.7236 76° East 245 282 4,000 -360 Descending New York Center
15:50 41.0439 -74.6472 75° East 220 253 4,000  Level New York Center
15:51 41.0694 -74.5664 67° East 220 253 4,000 -480 Level New York Center
15:52 41.0903 -74.4986 68° East 220 253 3,100 -540 Descending New York Center
15:53 41.1075 -74.4142 75° East 215 247 3,000 -60 Descending New York Center
15:54 41.1200 -74.3461 76° East 210 242 3,000  Level New York Center
15:55 41.1000 -74.2667 108° East 219 252 3,100  Climbing New York TRACON
15:56 41.0833 -74.2000 108° East 174 200 3,100  Level New York TRACON
15:57 41.0667 -74.1333 108° East 173 199 3,100 -60 Level New York TRACON
15:58 41.0667 -74.0833 90° East 171 197 3,000 -540 Descending New York TRACON
15:59 41.0333 -74.0500 143° Southeast 176 203 2,100 -480 Descending New York TRACON
16:00 40.9833 -74.0500 180° South 168 193 2,100 -240 Level New York TRACON
16:01 40.9333 -74.0500 180° South 166 191 1,700 -600 Descending New York TRACON
16:02 40.8833 -74.0500 180° South 149 171 900 -840 Descending New York TRACON